createdAt,value
2018-09-10T00:01:46.137Z,"    0"
2018-09-10T00:06:41.945Z,"    0"
2018-09-10T00:11:37.811Z,"    0"
2018-09-10T00:16:33.614Z,"    0"
2018-09-10T00:21:29.605Z,"    0"
2018-09-10T00:26:26.207Z,"    0"
2018-09-10T00:31:22.298Z,"    0"
2018-09-10T00:36:18.103Z,"    0"
2018-09-10T00:41:14.021Z,"    0"
2018-09-10T00:46:10.605Z,"    0"
2018-09-10T00:51:06.536Z,"    0"
2018-09-10T00:56:02.118Z,"    0"
2018-09-10T01:00:58.151Z,"    0"
2018-09-10T01:05:54.049Z,"    0"
2018-09-10T01:10:50.700Z,"    0"
2018-09-10T01:15:46.494Z,"    0"
2018-09-10T01:20:42.519Z,"    0"
2018-09-10T01:25:39.334Z,"    0"
2018-09-10T01:30:34.930Z,"    0"
2018-09-10T01:35:30.930Z,"    0"
2018-09-10T01:40:26.639Z,"    0"
2018-09-10T01:45:23.595Z,"    0"
2018-09-10T01:50:18.920Z,"    0"
2018-09-10T01:55:15.204Z,"    0"
2018-09-10T02:00:11.816Z,"    0"
2018-09-10T02:05:08.687Z,"    0"
2018-09-10T02:10:04.442Z,"    0"
2018-09-10T02:15:00.470Z,"    0"
2018-09-10T02:19:55.973Z,"    0"
2018-09-10T02:24:51.966Z,"    0"
2018-09-10T02:29:47.768Z,"    0"
2018-09-10T02:34:43.878Z,"    0"
2018-09-10T02:39:41.266Z,"    0"
2018-09-10T02:44:37.847Z,"    0"
2018-09-10T02:49:33.606Z,"    0"
2018-09-10T02:54:29.180Z,"    0"
2018-09-10T02:59:24.981Z,"    0"
2018-09-10T03:04:20.791Z,"    0"
2018-09-10T03:09:16.743Z,"    0"
2018-09-10T03:14:12.748Z,"    0"
2018-09-10T03:19:08.735Z,"    0"
2018-09-10T03:24:04.979Z,"    0"
2018-09-10T03:29:01.598Z,"    0"
2018-09-10T03:33:58.189Z,"    0"
2018-09-10T03:38:53.810Z,"    0"
2018-09-10T03:43:51.169Z,"    0"
2018-09-10T03:48:46.742Z,"    0"
2018-09-10T03:53:42.573Z,"    0"
2018-09-10T03:58:38.264Z,"    0"
2018-09-10T04:03:34.554Z,"    0"
2018-09-10T04:08:30.951Z,"    0"
2018-09-10T04:13:27.138Z,"    0"
2018-09-10T04:18:23.510Z,"    0"
2018-09-10T04:23:20.242Z,"    0"
2018-09-10T04:28:15.422Z,"    0"
2018-09-10T04:33:11.083Z,"    4"
2018-09-10T04:38:08.623Z,"    8"
2018-09-10T04:43:04.470Z,"   12"
2018-09-10T04:48:00.389Z,"   32"
2018-09-10T04:52:56.245Z,"   44"
2018-09-10T04:57:52.031Z,"   60"
2018-09-10T05:02:47.615Z,"  104"
2018-09-10T05:07:43.456Z,"  148"
2018-09-10T05:12:39.332Z,"  240"
2018-09-10T05:17:35.122Z,"  324"
2018-09-10T05:22:31.170Z,"  412"
2018-09-10T05:27:26.943Z,"  532"
2018-09-10T05:32:22.561Z,"  492"
2018-09-10T05:37:18.123Z,"  564"
2018-09-10T05:42:13.757Z,"  772"
2018-09-10T05:47:09.532Z,"  988"
2018-09-10T05:52:06.375Z," 1024"
2018-09-10T05:57:01.912Z," 1388"
2018-09-10T06:01:58.918Z," 1316"
2018-09-10T06:06:55.490Z,"  980"
2018-09-10T06:11:52.162Z," 1452"
2018-09-10T06:16:48.060Z," 3156"
2018-09-10T06:21:44.278Z," 3860"
2018-09-10T06:26:40.041Z," 3656"
2018-09-10T06:31:36.427Z," 4444"
2018-09-10T06:36:32.889Z," 4472"
2018-09-10T06:41:28.764Z," 4980"
2018-09-10T06:46:25.105Z," 4344"
2018-09-10T06:51:20.994Z," 4036"
2018-09-10T06:56:16.782Z," 5740"
2018-09-10T07:01:13.357Z," 5032"
2018-09-10T07:06:09.294Z," 4848"
2018-09-10T07:11:06.096Z," 5580"
2018-09-10T07:16:01.655Z," 5308"
2018-09-10T07:20:57.421Z," 6516"
2018-09-10T07:25:53.367Z," 7752"
2018-09-10T07:30:49.669Z,10508
2018-09-10T07:35:46.162Z," 9904"
2018-09-10T07:40:42.320Z," 8448"
2018-09-10T07:45:38.597Z," 8016"
2018-09-10T07:50:34.388Z," 7120"
2018-09-10T07:55:31.215Z," 4724"
2018-09-10T08:00:26.725Z," 4240"
2018-09-10T08:05:22.272Z," 5052"
2018-09-10T08:10:17.779Z," 4600"
2018-09-10T08:15:14.138Z," 4336"
2018-09-10T08:20:11.349Z," 5308"
2018-09-10T08:25:07.002Z," 5668"
2018-09-10T08:30:04.408Z," 6060"
2018-09-10T08:35:00.270Z," 6520"
2018-09-10T08:39:56.245Z," 6464"
2018-09-10T08:44:52.762Z," 5596"
2018-09-10T08:49:48.920Z," 6008"
2018-09-10T08:54:45.851Z," 7444"
2018-09-10T08:59:41.981Z," 7504"
2018-09-10T09:04:39.013Z," 9460"
2018-09-10T09:09:34.945Z," 9256"
2018-09-10T09:14:32.017Z," 9276"
2018-09-10T09:19:28.256Z,11268
2018-09-10T09:24:25.344Z,12156
2018-09-10T09:29:21.281Z,15312
2018-09-10T09:34:17.627Z,12880
2018-09-10T09:39:13.696Z,12784
2018-09-10T09:44:10.220Z,11140
2018-09-10T09:49:07.175Z,12596
2018-09-10T09:54:04.236Z," 8012"
2018-09-10T09:58:59.474Z," 7832"
2018-09-10T10:03:55.343Z," 8204"
2018-09-10T10:08:52.639Z,13348
2018-09-10T10:13:48.503Z,14376
2018-09-10T10:18:44.547Z," 6688"
2018-09-10T10:23:40.228Z," 7084"
2018-09-10T10:28:36.385Z,10176
2018-09-10T10:33:33.350Z," 7388"
2018-09-10T10:38:28.761Z," 8272"
2018-09-10T10:43:24.640Z," 7332"
2018-09-10T10:48:20.599Z," 6600"
2018-09-10T10:53:17.632Z," 6864"
2018-09-10T10:58:13.253Z," 5820"
2018-09-10T11:03:09.141Z," 7240"
2018-09-10T11:08:04.972Z," 7072"
2018-09-10T11:13:00.944Z," 9272"
2018-09-10T11:17:57.105Z,10128
2018-09-10T11:22:53.458Z,12292
2018-09-10T11:27:49.872Z,10660
2018-09-10T11:32:45.868Z," 8528"
2018-09-10T11:37:41.846Z," 7716"
2018-09-10T11:42:37.888Z," 8068"
2018-09-10T11:47:34.668Z," 8380"
2018-09-10T11:52:30.496Z," 8912"
2018-09-10T11:57:26.393Z," 9084"
2018-09-10T12:02:23.174Z," 8668"
2018-09-10T12:07:19.090Z," 8616"
2018-09-10T12:12:15.173Z," 6828"
2018-09-10T12:17:10.830Z," 5788"
2018-09-10T12:22:06.583Z," 6392"
2018-09-10T12:27:02.404Z," 6192"
2018-09-10T12:31:58.335Z," 6164"
2018-09-10T12:36:54.278Z," 8188"
2018-09-10T12:41:51.991Z," 9292"
2018-09-10T12:46:47.894Z," 8708"
2018-09-10T12:51:43.816Z,11012
2018-09-10T12:56:40.122Z,11268
2018-09-10T13:01:36.215Z,11896
2018-09-10T13:06:33.031Z," 6292"
2018-09-10T13:11:28.997Z," 5180"
2018-09-10T13:16:24.792Z," 4668"
2018-09-10T13:21:22.132Z,10244
2018-09-10T13:26:18.444Z,11164
2018-09-10T13:31:14.729Z," 8192"
2018-09-10T13:36:11.615Z," 6092"
2018-09-10T13:41:07.407Z," 4400"
2018-09-10T13:46:03.512Z," 3404"
2018-09-10T13:50:59.092Z," 6912"
2018-09-10T13:55:55.414Z," 6996"
2018-09-10T14:00:52.445Z," 7028"
2018-09-10T14:05:49.234Z," 6604"
2018-09-10T14:10:44.794Z," 5792"
2018-09-10T14:15:41.705Z," 6144"
2018-09-10T14:20:38.610Z," 6660"
2018-09-10T14:25:35.315Z," 5512"
2018-09-10T14:30:31.917Z," 5128"
2018-09-10T14:35:28.393Z," 4776"
2018-09-10T14:40:23.957Z," 4460"
2018-09-10T14:45:19.685Z," 4340"
2018-09-10T14:50:16.510Z," 3600"
2018-09-10T14:55:13.101Z," 3280"
2018-09-10T15:00:09.218Z," 3984"
2018-09-10T15:05:05.442Z," 3972"
2018-09-10T15:10:01.413Z," 4492"
2018-09-10T15:14:57.472Z," 4356"
2018-09-10T15:19:53.380Z," 3164"
2018-09-10T15:24:49.565Z," 2184"
2018-09-10T15:29:45.338Z," 1596"
2018-09-10T15:34:41.459Z,"  848"
2018-09-10T15:39:37.833Z," 2416"
2018-09-10T15:44:33.753Z," 2908"
2018-09-10T15:49:30.030Z," 2892"
2018-09-10T15:54:25.879Z," 3052"
2018-09-10T15:59:22.894Z," 2976"
2018-09-10T16:04:19.459Z," 2140"
2018-09-10T16:09:14.953Z," 1316"
2018-09-10T16:14:10.836Z," 1524"
2018-09-10T16:19:07.652Z," 1828"
2018-09-10T16:24:04.566Z," 1952"
2018-09-10T16:29:00.482Z," 1824"
2018-09-10T16:33:56.545Z," 1840"
2018-09-10T16:38:52.879Z," 1612"
2018-09-10T16:43:48.642Z," 1188"
2018-09-10T16:48:44.344Z," 1000"
2018-09-10T16:53:40.121Z,"  888"
2018-09-10T16:58:36.429Z,"  904"
2018-09-10T17:03:33.442Z,"  932"
2018-09-10T17:08:28.698Z,"  796"
2018-09-10T17:13:24.929Z,"  648"
2018-09-10T17:18:21.283Z,"  556"
2018-09-10T17:23:18.068Z,"  512"
2018-09-10T17:28:13.400Z,"  396"
2018-09-10T17:33:09.215Z,"  336"
2018-09-10T17:38:04.905Z,"  232"
2018-09-10T17:43:00.983Z,"  152"
2018-09-10T17:47:58.173Z,"  116"
2018-09-10T17:52:54.238Z,"   84"
2018-09-10T17:57:50.336Z,"   56"
2018-09-10T18:02:46.942Z,"   32"
2018-09-10T18:07:42.591Z,"   20"
2018-09-10T18:12:39.358Z,"    8"
2018-09-10T18:17:36.405Z,"    4"
2018-09-10T18:22:31.988Z,"    0"
2018-09-10T18:27:27.929Z,"    0"
2018-09-10T18:32:23.410Z,"    0"
2018-09-10T18:37:19.729Z,"    0"
2018-09-10T18:42:15.408Z,"    0"
2018-09-10T18:47:11.109Z,"    0"
2018-09-10T18:52:06.850Z,"    0"
2018-09-10T18:57:02.699Z,"    0"
2018-09-10T19:01:59.589Z,"    0"
2018-09-10T19:06:55.608Z,"    0"
2018-09-10T19:11:50.925Z,"    0"
2018-09-10T19:16:46.781Z,"    0"
2018-09-10T19:21:43.796Z,"    0"
2018-09-10T19:26:40.123Z,"    0"
2018-09-10T19:31:36.500Z,"    0"
2018-09-10T19:36:32.686Z,"    0"
2018-09-10T19:41:28.150Z,"    0"
2018-09-10T19:46:25.363Z,"    0"
2018-09-10T19:51:21.530Z,"    0"
2018-09-10T19:56:17.484Z,"    0"
2018-09-10T20:01:13.110Z,"    0"
2018-09-10T20:06:08.726Z,"    0"
2018-09-10T20:11:06.098Z,"    0"
2018-09-10T20:16:02.557Z,"    0"
2018-09-10T20:20:58.462Z,"    0"
2018-09-10T20:25:54.135Z,"    0"
2018-09-10T20:30:50.390Z,"    0"
2018-09-10T20:35:47.396Z,"    0"
2018-09-10T20:40:43.647Z,"    0"
2018-09-10T20:45:39.495Z,"    0"
2018-09-10T20:50:35.153Z,"    0"
2018-09-10T20:55:30.572Z,"    0"
2018-09-10T21:00:26.735Z,"    0"
2018-09-10T21:10:23.534Z,"    0"
2018-09-10T21:15:19.435Z,"    0"
2018-09-10T21:20:15.336Z,"    0"
2018-09-10T21:25:11.174Z,"    0"
2018-09-10T21:30:06.796Z,"    0"
2018-09-10T21:35:02.726Z,"    0"
2018-09-10T21:39:59.963Z,"    0"
2018-09-10T21:44:55.252Z,"    0"
2018-09-10T21:49:51.505Z,"    0"
2018-09-10T21:54:47.326Z,"    0"
2018-09-10T21:59:43.775Z,"    0"
2018-09-10T22:04:39.559Z,"    0"
2018-09-10T22:09:36.259Z,"    0"
2018-09-10T22:14:32.550Z,"    0"
2018-09-10T22:19:28.283Z,"    0"
2018-09-10T22:24:25.154Z,"    0"
2018-09-10T22:29:20.711Z,"    0"
2018-09-10T22:34:16.392Z,"    0"
2018-09-10T22:39:12.183Z,"    0"
2018-09-10T22:44:07.686Z,"    0"
2018-09-10T22:49:03.239Z,"    0"
2018-09-10T22:53:59.212Z,"    0"
2018-09-10T22:58:55.246Z,"    0"
2018-09-10T23:03:51.250Z,"    0"
2018-09-10T23:08:47.130Z,"    0"
2018-09-10T23:13:44.031Z,"    0"
2018-09-10T23:18:40.108Z,"    0"
2018-09-10T23:23:37.308Z,"    0"
2018-09-10T23:28:33.665Z,"    0"
2018-09-10T23:33:30.098Z,"    0"
2018-09-10T23:38:25.833Z,"    0"
2018-09-10T23:43:21.819Z,"    0"
2018-09-10T23:48:17.682Z,"    0"
2018-09-10T23:53:13.715Z,"    0"
2018-09-10T23:58:09.411Z,"    0"
